sensor_id;sensor_type;location;lat;lon;timestamp;pressure;altitude;pressure_sealevel;temperature;humidity
71476;BME280;59286;59.274;17.974;2023-04-24T00:00:19;99831.72;;;7.03;97.60
71476;BME280;59286;59.274;17.974;2023-04-24T00:02:45;99836.84;;;7.08;97.57
71476;BME280;59286;59.274;17.974;2023-04-24T00:05:15;99842.63;;;7.05;97.34
71476;BME280;59286;59.274;17.974;2023-04-24T00:07:41;99839.53;;;7.03;97.72
71476;BME280;59286;59.274;17.974;2023-04-24T00:10:07;99834.91;;;7.00;97.58
71476;BME280;59286;59.274;17.974;2023-04-24T00:12:33;99824.97;;;6.88;97.76
71476;BME280;59286;59.274;17.974;2023-04-24T00:14:59;99830.38;;;6.92;97.06
71476;BME280;59286;59.274;17.974;2023-04-24T00:17:24;99845.53;;;7.04;97.14
71476;BME280;59286;59.274;17.974;2023-04-24T00:19:50;99826.81;;;6.88;97.66
71476;BME280;59286;59.274;17.974;2023-04-24T00:22:17;99836.84;;;6.95;97.92
71476;BME280;59286;59.274;17.974;2023-04-24T00:24:43;99855.78;;;7.14;97.41
71476;BME280;59286;59.274;17.974;2023-04-24T00:27:08;99832.59;;;6.99;97.21
71476;BME280;59286;59.274;17.974;2023-04-24T00:29:33;99855.00;;;7.13;97.09
71476;BME280;59286;59.274;17.974;2023-04-24T00:31:59;99853.91;;;7.14;97.21
71476;BME280;59286;59.274;17.974;2023-04-24T00:34:24;99865.59;;;7.17;96.99
71476;BME280;59286;59.274;17.974;2023-04-24T00:36:50;99853.53;;;7.07;97.09
71476;BME280;59286;59.274;17.974;2023-04-24T00:39:18;99853.31;;;6.90;97.44
71476;BME280;59286;59.274;17.974;2023-04-24T00:41:44;99848.59;;;6.92;97.06
71476;BME280;59286;59.274;17.974;2023-04-24T00:44:10;99862.09;;;6.94;97.79
71476;BME280;59286;59.274;17.974;2023-04-24T00:46:36;99850.19;;;6.61;98.90
71476;BME280;59286;59.274;17.974;2023-04-24T00:49:02;99860.72;;;6.69;98.88
71476;BME280;59286;59.274;17.974;2023-04-24T00:51:27;99853.00;;;6.64;98.69
71476;BME280;59286;59.274;17.974;2023-04-24T00:53:52;99848.81;;;6.50;99.32
71476;BME280;59286;59.274;17.974;2023-04-24T00:56:18;99849.78;;;6.54;98.90
71476;BME280;59286;59.274;17.974;2023-04-24T00:58:44;99868.56;;;6.51;98.84
71476;BME280;59286;59.274;17.974;2023-04-24T01:01:10;99882.38;;;6.33;100.00
71476;BME280;59286;59.274;17.974;2023-04-24T01:03:37;99871.97;;;6.33;100.00
71476;BME280;59286;59.274;17.974;2023-04-24T01:06:04;99870.38;;;6.18;100.00
71476;BME280;59286;59.274;17.974;2023-04-24T01:08:30;99890.81;;;6.25;100.00
71476;BME280;59286;59.274;17.974;2023-04-24T01:10:57;99892.44;;;6.39;100.00
71476;BME280;59286;59.274;17.974;2023-04-24T01:13:23;99882.38;;;6.33;99.08
71476;BME280;59286;59.274;17.974;2023-04-24T01:15:48;99892.47;;;6.21;99.68
71476;BME280;59286;59.274;17.974;2023-04-24T01:18:14;99894.69;;;6.27;100.00
71476;BME280;59286;59.274;17.974;2023-04-24T01:20:41;99891.53;;;6.49;99.11
71476;BME280;59286;59.274;17.974;2023-04-24T01:23:07;99889.69;;;6.49;98.69
71476;BME280;59286;59.274;17.974;2023-04-24T01:25:33;99886.78;;;6.51;98.46
71476;BME280;59286;59.274;17.974;2023-04-24T01:27:58;99881.69;;;6.27;98.28
71476;BME280;59286;59.274;17.974;2023-04-24T01:30:24;99889.91;;;6.34;98.37
71476;BME280;59286;59.274;17.974;2023-04-24T01:32:50;99893.69;;;6.42;97.66
71476;BME280;59286;59.274;17.974;2023-04-24T01:35:15;99884.22;;;6.14;98.46
71476;BME280;59286;59.274;17.974;2023-04-24T01:37:41;99883.97;;;5.97;99.40
71476;BME280;59286;59.274;17.974;2023-04-24T01:40:07;99896.31;;;6.05;100.00
71476;BME280;59286;59.274;17.974;2023-04-24T01:42:32;99863.13;;;5.78;99.59
71476;BME280;59286;59.274;17.974;2023-04-24T01:44:59;99886.28;;;5.98;99.57
71476;BME280;59286;59.274;17.974;2023-04-24T01:47:25;99894.00;;;6.03;99.58
71476;BME280;59286;59.274;17.974;2023-04-24T01:49:50;99900.31;;;6.16;99.44
71476;BME280;59286;59.274;17.974;2023-04-24T01:52:16;99894.78;;;6.04;98.54
71476;BME280;59286;59.274;17.974;2023-04-24T01:54:43;99911.88;;;6.10;99.47
71476;BME280;59286;59.274;17.974;2023-04-24T01:57:09;99909.03;;;6.06;98.58
71476;BME280;59286;59.274;17.974;2023-04-24T01:59:34;99909.97;;;5.97;99.02
71476;BME280;59286;59.274;17.974;2023-04-24T02:02:01;99909.97;;;5.97;99.52
71476;BME280;59286;59.274;17.974;2023-04-24T02:04:27;99903.78;;;5.93;99.24
71476;BME280;59286;59.274;17.974;2023-04-24T02:06:52;99902.09;;;6.02;98.83
71476;BME280;59286;59.274;17.974;2023-04-24T02:09:18;99906.19;;;6.08;98.43
71476;BME280;59286;59.274;17.974;2023-04-24T02:11:43;99908.78;;;6.08;98.45
71476;BME280;59286;59.274;17.974;2023-04-24T02:14:08;99916.00;;;6.11;97.67
71476;BME280;59286;59.274;17.974;2023-04-24T02:16:34;99896.31;;;6.05;97.25
71476;BME280;59286;59.274;17.974;2023-04-24T02:19:01;99894.50;;;6.05;97.38
71476;BME280;59286;59.274;17.974;2023-04-24T02:21:26;99910.69;;;6.21;97.14
71476;BME280;59286;59.274;17.974;2023-04-24T02:23:53;99902.19;;;6.15;97.15
71476;BME280;59286;59.274;17.974;2023-04-24T02:26:18;99920.66;;;6.14;96.84
71476;BME280;59286;59.274;17.974;2023-04-24T02:28:44;99919.09;;;6.13;96.88
71476;BME280;59286;59.274;17.974;2023-04-24T02:31:09;99925.50;;;6.20;96.59
71476;BME280;59286;59.274;17.974;2023-04-24T02:33:34;99923.63;;;6.26;96.33
71476;BME280;59286;59.274;17.974;2023-04-24T02:36:01;99917.13;;;6.23;96.60
71476;BME280;59286;59.274;17.974;2023-04-24T02:38:26;99908.00;;;6.26;95.92
71476;BME280;59286;59.274;17.974;2023-04-24T02:40:52;99913.13;;;6.31;95.82
71476;BME280;59286;59.274;17.974;2023-04-24T02:43:17;99901.72;;;6.27;95.96
71476;BME280;59286;59.274;17.974;2023-04-24T02:45:42;99909.97;;;6.15;95.87
71476;BME280;59286;59.274;17.974;2023-04-24T02:48:08;99935.13;;;6.20;95.95
71476;BME280;59286;59.274;17.974;2023-04-24T02:50:33;99928.59;;;6.22;96.42
71476;BME280;59286;59.274;17.974;2023-04-24T02:52:59;99920.09;;;6.17;95.92
71476;BME280;59286;59.274;17.974;2023-04-24T02:55:24;99929.66;;;6.21;96.58
71476;BME280;59286;59.274;17.974;2023-04-24T02:57:50;99930.34;;;6.08;97.24
71476;BME280;59286;59.274;17.974;2023-04-24T03:00:15;99920.72;;;6.09;97.08
71476;BME280;59286;59.274;17.974;2023-04-24T03:02:41;99927.81;;;6.22;97.22
71476;BME280;59286;59.274;17.974;2023-04-24T03:05:07;99938.22;;;6.22;97.00
71476;BME280;59286;59.274;17.974;2023-04-24T03:07:33;99932.81;;;6.18;97.07
71476;BME280;59286;59.274;17.974;2023-04-24T03:09:58;99939.31;;;6.21;97.46
71476;BME280;59286;59.274;17.974;2023-04-24T03:12:24;99938.66;;;6.29;96.54
71476;BME280;59286;59.274;17.974;2023-04-24T03:14:50;99932.13;;;6.31;95.44
71476;BME280;59286;59.274;17.974;2023-04-24T03:17:15;99945.63;;;6.33;96.10
71476;BME280;59286;59.274;17.974;2023-04-24T03:19:40;99949.84;;;6.29;96.18
71476;BME280;59286;59.274;17.974;2023-04-24T03:22:06;99949.50;;;6.36;95.70
71476;BME280;59286;59.274;17.974;2023-04-24T03:24:31;99955.41;;;6.41;95.94
71476;BME280;59286;59.274;17.974;2023-04-24T03:26:57;99960.47;;;6.33;96.46
71476;BME280;59286;59.274;17.974;2023-04-24T03:29:22;99962.34;;;6.27;96.85
71476;BME280;59286;59.274;17.974;2023-04-24T03:31:48;99953.94;;;6.17;97.04
71476;BME280;59286;59.274;17.974;2023-04-24T03:34:13;99933.72;;;6.09;96.37
71476;BME280;59286;59.274;17.974;2023-04-24T03:36:39;99956.44;;;6.22;96.30
71476;BME280;59286;59.274;17.974;2023-04-24T03:39:04;99955.56;;;5.89;97.19
71476;BME280;59286;59.274;17.974;2023-04-24T03:41:30;99956.94;;;5.81;98.31
71476;BME280;59286;59.274;17.974;2023-04-24T03:43:56;99950.63;;;5.87;98.06
71476;BME280;59286;59.274;17.974;2023-04-24T03:46:21;99961.28;;;5.91;97.29
71476;BME280;59286;59.274;17.974;2023-04-24T03:48:46;99951.25;;;5.79;97.84
71476;BME280;59286;59.274;17.974;2023-04-24T03:51:12;99959.53;;;5.81;97.51
71476;BME280;59286;59.274;17.974;2023-04-24T03:53:37;99951.56;;;5.49;98.33
71476;BME280;59286;59.274;17.974;2023-04-24T03:56:03;99947.16;;;5.50;98.14
71476;BME280;59286;59.274;17.974;2023-04-24T03:58:28;99955.03;;;5.63;98.66
71476;BME280;59286;59.274;17.974;2023-04-24T04:00:53;99958.59;;;5.72;97.93
71476;BME280;59286;59.274;17.974;2023-04-24T04:03:19;99972.91;;;5.70;98.11
71476;BME280;59286;59.274;17.974;2023-04-24T04:05:44;99976.47;;;5.79;97.83
71476;BME280;59286;59.274;17.974;2023-04-24T04:08:10;99985.84;;;5.75;97.48
71476;BME280;59286;59.274;17.974;2023-04-24T04:10:35;99987.97;;;5.73;97.23
71476;BME280;59286;59.274;17.974;2023-04-24T04:13:01;99986.53;;;5.62;97.80
71476;BME280;59286;59.274;17.974;2023-04-24T04:15:26;99997.25;;;5.55;98.36
71476;BME280;59286;59.274;17.974;2023-04-24T04:17:51;100001.69;;;5.55;98.13
71476;BME280;59286;59.274;17.974;2023-04-24T04:20:17;100006.09;;;5.54;98.33
71476;BME280;59286;59.274;17.974;2023-04-24T04:22:42;100020.09;;;5.58;97.96
71476;BME280;59286;59.274;17.974;2023-04-24T04:25:08;100005.41;;;5.44;98.60
71476;BME280;59286;59.274;17.974;2023-04-24T04:27:33;100018.31;;;5.54;98.05
71476;BME280;59286;59.274;17.974;2023-04-24T04:30:00;100032.09;;;5.54;98.09
71476;BME280;59286;59.274;17.974;2023-04-24T04:32:33;100031.63;;;5.47;98.06
71476;BME280;59286;59.274;17.974;2023-04-24T04:34:59;100030.97;;;5.37;98.39
71476;BME280;59286;59.274;17.974;2023-04-24T04:37:34;100033.81;;;5.35;98.67
71476;BME280;59286;59.274;17.974;2023-04-24T04:40:00;100042.38;;;5.36;99.50
71476;BME280;59286;59.274;17.974;2023-04-24T04:42:26;100042.59;;;5.44;98.07
71476;BME280;59286;59.274;17.974;2023-04-24T04:44:52;100041.81;;;5.44;98.10
71476;BME280;59286;59.274;17.974;2023-04-24T04:47:17;100014.22;;;5.19;97.91
71476;BME280;59286;59.274;17.974;2023-04-24T04:49:43;100050.47;;;5.34;98.03
71476;BME280;59286;59.274;17.974;2023-04-24T04:52:09;100048.81;;;5.15;99.03
71476;BME280;59286;59.274;17.974;2023-04-24T04:54:34;100043.09;;;5.13;99.36
71476;BME280;59286;59.274;17.974;2023-04-24T04:57:00;100064.50;;;5.33;98.98
71476;BME280;59286;59.274;17.974;2023-04-24T04:59:26;100064.25;;;5.30;100.00
71476;BME280;59286;59.274;17.974;2023-04-24T05:01:51;100051.09;;;5.21;99.93
71476;BME280;59286;59.274;17.974;2023-04-24T05:04:17;100064.75;;;5.37;99.33
71476;BME280;59286;59.274;17.974;2023-04-24T05:06:42;100049.53;;;5.20;98.77
71476;BME280;59286;59.274;17.974;2023-04-24T05:09:08;100063.22;;;5.31;100.00
71476;BME280;59286;59.274;17.974;2023-04-24T05:11:33;100070.75;;;5.32;100.00
71476;BME280;59286;59.274;17.974;2023-04-24T05:13:58;100071.81;;;5.26;99.39
71476;BME280;59286;59.274;17.974;2023-04-24T05:16:24;100072.66;;;5.17;99.91
71476;BME280;59286;59.274;17.974;2023-04-24T05:18:49;100064.72;;;5.03;100.00
71476;BME280;59286;59.274;17.974;2023-04-24T05:21:14;100072.53;;;5.03;100.00
71476;BME280;59286;59.274;17.974;2023-04-24T05:23:40;100060.66;;;4.92;100.00
71476;BME280;59286;59.274;17.974;2023-04-24T05:26:05;100063.22;;;4.97;100.00
71476;BME280;59286;59.274;17.974;2023-04-24T05:28:30;100065.28;;;4.95;100.00
71476;BME280;59286;59.274;17.974;2023-04-24T05:30:56;100044.84;;;4.88;100.00
71476;BME280;59286;59.274;17.974;2023-04-24T05:33:21;100077.72;;;5.03;99.80
71476;BME280;59286;59.274;17.974;2023-04-24T05:35:48;100072.53;;;5.03;100.00
71476;BME280;59286;59.274;17.974;2023-04-24T05:38:14;100075.63;;;5.00;100.00
71476;BME280;59286;59.274;17.974;2023-04-24T05:40:39;100099.47;;;5.12;100.00
71476;BME280;59286;59.274;17.974;2023-04-24T05:43:05;100095.81;;;5.13;100.00
71476;BME280;59286;59.274;17.974;2023-04-24T05:45:30;100105.47;;;5.08;98.92
71476;BME280;59286;59.274;17.974;2023-04-24T05:47:56;100110.88;;;5.11;99.98
71476;BME280;59286;59.274;17.974;2023-04-24T05:50:22;100099.75;;;5.11;100.00
71476;BME280;59286;59.274;17.974;2023-04-24T05:52:47;100098.91;;;5.20;98.57
71476;BME280;59286;59.274;17.974;2023-04-24T05:55:12;100083.59;;;5.14;98.72
71476;BME280;59286;59.274;17.974;2023-04-24T05:57:38;100084.19;;;5.06;100.00
71476;BME280;59286;59.274;17.974;2023-04-24T06:00:04;100095.56;;;5.15;99.11
71476;BME280;59286;59.274;17.974;2023-04-24T06:02:30;100104.94;;;5.11;99.58
71476;BME280;59286;59.274;17.974;2023-04-24T06:05:00;100100.25;;;5.13;99.59
71476;BME280;59286;59.274;17.974;2023-04-24T06:07:25;100098.84;;;5.25;99.83
71476;BME280;59286;59.274;17.974;2023-04-24T06:09:54;100098.81;;;5.30;98.03
71476;BME280;59286;59.274;17.974;2023-04-24T06:12:19;100090.06;;;5.21;98.15
71476;BME280;59286;59.274;17.974;2023-04-24T06:14:45;100081.81;;;5.09;98.57
71476;BME280;59286;59.274;17.974;2023-04-24T06:17:10;100092.47;;;5.08;99.00
71476;BME280;59286;59.274;17.974;2023-04-24T06:19:35;100091.03;;;4.91;98.98
71476;BME280;59286;59.274;17.974;2023-04-24T06:22:01;100113.56;;;5.01;99.69
71476;BME280;59286;59.274;17.974;2023-04-24T06:24:29;100100.88;;;4.94;99.74
71476;BME280;59286;59.274;17.974;2023-04-24T06:26:55;100105.00;;;5.01;100.00
71476;BME280;59286;59.274;17.974;2023-04-24T06:29:22;100103.91;;;5.07;100.00
71476;BME280;59286;59.274;17.974;2023-04-24T06:31:47;100106.53;;;5.07;98.92
71476;BME280;59286;59.274;17.974;2023-04-24T06:34:13;100090.75;;;4.93;99.13
71476;BME280;59286;59.274;17.974;2023-04-24T06:36:38;100109.63;;;5.09;99.75
71476;BME280;59286;59.274;17.974;2023-04-24T06:39:03;100114.03;;;5.08;99.83
71476;BME280;59286;59.274;17.974;2023-04-24T06:41:29;100112.66;;;5.21;99.58
71476;BME280;59286;59.274;17.974;2023-04-24T06:43:55;100114.97;;;5.27;97.99
71476;BME280;59286;59.274;17.974;2023-04-24T06:46:20;100118.06;;;5.29;98.42
71476;BME280;59286;59.274;17.974;2023-04-24T06:48:49;100119.69;;;5.20;98.06
71476;BME280;59286;59.274;17.974;2023-04-24T06:51:15;100125.13;;;5.24;98.50
71476;BME280;59286;59.274;17.974;2023-04-24T06:53:40;100127.34;;;5.35;98.25
71476;BME280;59286;59.274;17.974;2023-04-24T06:56:05;100123.16;;;5.39;96.80
71476;BME280;59286;59.274;17.974;2023-04-24T06:58:31;100128.84;;;5.46;96.03
71476;BME280;59286;59.274;17.974;2023-04-24T07:00:56;100140.75;;;5.52;95.92
71476;BME280;59286;59.274;17.974;2023-04-24T07:03:21;100133.34;;;5.36;96.18
71476;BME280;59286;59.274;17.974;2023-04-24T07:05:48;100145.53;;;5.40;96.04
71476;BME280;59286;59.274;17.974;2023-04-24T07:08:14;100148.13;;;5.40;95.86
71476;BME280;59286;59.274;17.974;2023-04-24T07:10:42;100151.25;;;5.37;95.34
71476;BME280;59286;59.274;17.974;2023-04-24T07:13:07;100144.09;;;5.19;95.14
71476;BME280;59286;59.274;17.974;2023-04-24T07:15:33;100154.69;;;5.28;95.87
71476;BME280;59286;59.274;17.974;2023-04-24T07:17:59;100154.94;;;5.31;96.35
71476;BME280;59286;59.274;17.974;2023-04-24T07:20:24;100151.88;;;5.19;96.58
71476;BME280;59286;59.274;17.974;2023-04-24T07:22:51;100160.09;;;5.36;96.14
71476;BME280;59286;59.274;17.974;2023-04-24T07:25:19;100167.44;;;5.29;95.80
71476;BME280;59286;59.274;17.974;2023-04-24T07:27:44;100177.59;;;5.21;95.42
71476;BME280;59286;59.274;17.974;2023-04-24T07:30:10;100167.50;;;5.14;96.74
71476;BME280;59286;59.274;17.974;2023-04-24T07:32:36;100187.75;;;5.17;96.73
71476;BME280;59286;59.274;17.974;2023-04-24T07:35:01;100194.50;;;5.18;96.19
71476;BME280;59286;59.274;17.974;2023-04-24T07:37:27;100201.44;;;5.33;96.36
71476;BME280;59286;59.274;17.974;2023-04-24T07:39:53;100206.84;;;5.41;96.74
71476;BME280;59286;59.274;17.974;2023-04-24T07:42:18;100216.34;;;5.56;95.89
71476;BME280;59286;59.274;17.974;2023-04-24T07:44:43;100219.03;;;5.41;95.16
71476;BME280;59286;59.274;17.974;2023-04-24T07:47:09;100212.59;;;5.38;95.36
71476;BME280;59286;59.274;17.974;2023-04-24T07:49:34;100218.81;;;5.37;95.30
71476;BME280;59286;59.274;17.974;2023-04-24T07:52:00;100216.19;;;5.42;95.24
71476;BME280;59286;59.274;17.974;2023-04-24T07:54:27;100226.00;;;5.55;94.10
71476;BME280;59286;59.274;17.974;2023-04-24T07:56:53;100223.63;;;5.59;93.99
71476;BME280;59286;59.274;17.974;2023-04-24T07:59:18;100221.56;;;5.56;93.99
71476;BME280;59286;59.274;17.974;2023-04-24T08:01:44;100223.41;;;5.50;93.69
71476;BME280;59286;59.274;17.974;2023-04-24T08:04:09;100228.56;;;5.60;93.66
71476;BME280;59286;59.274;17.974;2023-04-24T08:06:35;100212.41;;;5.68;93.48
71476;BME280;59286;59.274;17.974;2023-04-24T08:09:00;100214.91;;;5.83;92.47
71476;BME280;59286;59.274;17.974;2023-04-24T08:11:26;100221.94;;;5.78;93.00
71476;BME280;59286;59.274;17.974;2023-04-24T08:13:51;100226.88;;;5.79;92.16
71476;BME280;59286;59.274;17.974;2023-04-24T08:16:16;100225.31;;;5.78;92.37
71476;BME280;59286;59.274;17.974;2023-04-24T08:18:42;100225.31;;;5.78;91.00
71476;BME280;59286;59.274;17.974;2023-04-24T08:21:07;100218.56;;;5.77;91.94
71476;BME280;59286;59.274;17.974;2023-04-24T08:23:32;100216.25;;;5.76;92.24
71476;BME280;59286;59.274;17.974;2023-04-24T08:25:58;100235.94;;;5.82;92.25
71476;BME280;59286;59.274;17.974;2023-04-24T08:28:23;100235.78;;;5.68;92.43
71476;BME280;59286;59.274;17.974;2023-04-24T08:30:49;100229.34;;;5.61;92.80
71476;BME280;59286;59.274;17.974;2023-04-24T08:33:19;100240.69;;;5.75;93.03
71476;BME280;59286;59.274;17.974;2023-04-24T08:35:45;100238.81;;;5.80;93.16
71476;BME280;59286;59.274;17.974;2023-04-24T08:38:10;100227.88;;;5.88;92.08
71476;BME280;59286;59.274;17.974;2023-04-24T08:40:36;100226.25;;;5.98;92.85
71476;BME280;59286;59.274;17.974;2023-04-24T08:43:03;100234.72;;;6.08;91.87
71476;BME280;59286;59.274;17.974;2023-04-24T08:45:29;100243.31;;;6.09;91.12
71476;BME280;59286;59.274;17.974;2023-04-24T08:47:54;100242.28;;;6.10;91.52
71476;BME280;59286;59.274;17.974;2023-04-24T08:50:21;100239.47;;;6.01;91.75
71476;BME280;59286;59.274;17.974;2023-04-24T08:52:50;100234.59;;;5.95;92.42
71476;BME280;59286;59.274;17.974;2023-04-24T08:55:16;100234.94;;;6.17;92.66
71476;BME280;59286;59.274;17.974;2023-04-24T08:57:45;100232.50;;;6.25;91.47
71476;BME280;59286;59.274;17.974;2023-04-24T09:00:11;100245.97;;;6.32;91.33
71476;BME280;59286;59.274;17.974;2023-04-24T09:02:40;100231.25;;;6.23;90.59
71476;BME280;59286;59.274;17.974;2023-04-24T09:05:07;100236.44;;;6.23;91.64
71476;BME280;59286;59.274;17.974;2023-04-24T09:07:34;100242.09;;;6.30;91.51
71476;BME280;59286;59.274;17.974;2023-04-24T09:10:01;100240.50;;;6.34;91.24
71476;BME280;59286;59.274;17.974;2023-04-24T09:12:27;100240.53;;;6.29;91.95
71476;BME280;59286;59.274;17.974;2023-04-24T09:14:52;100235.09;;;6.25;92.64
71476;BME280;59286;59.274;17.974;2023-04-24T09:17:18;100237.41;;;6.32;92.41
71476;BME280;59286;59.274;17.974;2023-04-24T09:19:44;100244.38;;;6.36;91.75
71476;BME280;59286;59.274;17.974;2023-04-24T09:22:09;100241.09;;;6.26;91.21
71476;BME280;59286;59.274;17.974;2023-04-24T09:24:36;100241.09;;;6.26;91.57
71476;BME280;59286;59.274;17.974;2023-04-24T09:27:01;100253.03;;;6.27;91.56
71476;BME280;59286;59.274;17.974;2023-04-24T09:29:27;100255.28;;;6.38;92.44
71476;BME280;59286;59.274;17.974;2023-04-24T09:31:53;100257.59;;;6.40;91.97
71476;BME280;59286;59.274;17.974;2023-04-24T09:34:23;100253.28;;;6.30;91.10
71476;BME280;59286;59.274;17.974;2023-04-24T09:36:49;100263.56;;;6.17;91.37
71476;BME280;59286;59.274;17.974;2023-04-24T09:39:15;100265.44;;;6.06;92.35
71476;BME280;59286;59.274;17.974;2023-04-24T09:41:49;100257.91;;;6.05;92.55
71476;BME280;59286;59.274;17.974;2023-04-24T09:44:16;100252.34;;;6.16;91.61
71476;BME280;59286;59.274;17.974;2023-04-24T09:46:46;100253.66;;;6.19;92.03
71476;BME280;59286;59.274;17.974;2023-04-24T09:49:16;100241.50;;;6.09;92.56
71476;BME280;59286;59.274;17.974;2023-04-24T09:51:42;100242.81;;;6.07;92.81
71476;BME280;59286;59.274;17.974;2023-04-24T09:54:14;100247.50;;;6.05;93.40
71476;BME280;59286;59.274;17.974;2023-04-24T09:56:45;100244.59;;;6.11;93.10
71476;BME280;59286;59.274;17.974;2023-04-24T09:59:11;100243.19;;;6.24;93.31
71476;BME280;59286;59.274;17.974;2023-04-24T10:01:37;100241.38;;;6.24;92.52
71476;BME280;59286;59.274;17.974;2023-04-24T10:04:04;100254.38;;;6.24;92.36
71476;BME280;59286;59.274;17.974;2023-04-24T10:06:36;100253.16;;;6.17;93.00
71476;BME280;59286;59.274;17.974;2023-04-24T10:09:02;100246.88;;;6.18;92.41
71476;BME280;59286;59.274;17.974;2023-04-24T10:11:29;100245.63;;;6.15;93.35
71476;BME280;59286;59.274;17.974;2023-04-24T10:13:55;100249.19;;;6.24;92.02
71476;BME280;59286;59.274;17.974;2023-04-24T10:16:23;100253.00;;;6.32;92.32
71476;BME280;59286;59.274;17.974;2023-04-24T10:18:49;100242.63;;;6.27;92.44
71476;BME280;59286;59.274;17.974;2023-04-24T10:21:15;100255.56;;;6.37;92.13
71476;BME280;59286;59.274;17.974;2023-04-24T10:23:42;100244.06;;;6.43;92.05
71476;BME280;59286;59.274;17.974;2023-04-24T10:26:09;100240.03;;;6.55;91.66
71476;BME280;59286;59.274;17.974;2023-04-24T10:28:36;100241.47;;;6.66;90.87
71476;BME280;59286;59.274;17.974;2023-04-24T10:31:02;100253.22;;;6.88;89.55
71476;BME280;59286;59.274;17.974;2023-04-24T10:33:28;100256.94;;;6.81;88.63
71476;BME280;59286;59.274;17.974;2023-04-24T10:35:55;100259.91;;;6.70;89.94
71476;BME280;59286;59.274;17.974;2023-04-24T10:38:25;100258.97;;;6.84;89.00
71476;BME280;59286;59.274;17.974;2023-04-24T10:41:18;100268.69;;;7.03;89.09
71476;BME280;59286;59.274;17.974;2023-04-24T10:43:45;100261.38;;;7.05;87.85
71476;BME280;59286;59.274;17.974;2023-04-24T10:46:16;100268.97;;;7.01;87.18
71476;BME280;59286;59.274;17.974;2023-04-24T10:48:52;100261.84;;;6.88;87.26
71476;BME280;59286;59.274;17.974;2023-04-24T10:51:17;100275.03;;;6.68;88.03
71476;BME280;59286;59.274;17.974;2023-04-24T10:53:42;100281.38;;;6.62;88.68
71476;BME280;59286;59.274;17.974;2023-04-24T10:56:09;100281.81;;;6.69;88.83
71476;BME280;59286;59.274;17.974;2023-04-24T10:58:41;100284.94;;;6.71;88.67
71476;BME280;59286;59.274;17.974;2023-04-24T11:01:23;100276.75;;;6.54;89.29
71476;BME280;59286;59.274;17.974;2023-04-24T11:03:51;100278.78;;;6.62;89.21
71476;BME280;59286;59.274;17.974;2023-04-24T11:06:31;100285.44;;;6.73;88.71
71476;BME280;59286;59.274;17.974;2023-04-24T11:09:08;100282.81;;;6.73;89.16
71476;BME280;59286;59.274;17.974;2023-04-24T11:11:35;100276.69;;;6.88;89.50
71476;BME280;59286;59.274;17.974;2023-04-24T11:14:02;100271.09;;;6.99;88.73
71476;BME280;59286;59.274;17.974;2023-04-24T11:19:05;100278.41;;;6.97;88.55
71476;BME280;59286;59.274;17.974;2023-04-24T11:21:32;100279.44;;;6.96;87.65
71476;BME280;59286;59.274;17.974;2023-04-24T11:23:58;100275.38;;;6.85;87.66
71476;BME280;59286;59.274;17.974;2023-04-24T11:26:24;100290.63;;;6.73;88.03
71476;BME280;59286;59.274;17.974;2023-04-24T11:29:06;100289.00;;;6.77;88.29
71476;BME280;59286;59.274;17.974;2023-04-24T11:31:43;100289.41;;;6.65;88.21
71476;BME280;59286;59.274;17.974;2023-04-24T11:34:14;100294.19;;;6.82;89.06
71476;BME280;59286;59.274;17.974;2023-04-24T11:36:42;100293.13;;;6.83;87.87
71476;BME280;59286;59.274;17.974;2023-04-24T11:39:08;100302.31;;;6.75;88.45
71476;BME280;59286;59.274;17.974;2023-04-24T11:41:34;100299.50;;;6.72;89.02
71476;BME280;59286;59.274;17.974;2023-04-24T11:44:01;100296.94;;;6.67;89.07
71476;BME280;59286;59.274;17.974;2023-04-24T11:46:28;100289.72;;;6.59;89.20
71476;BME280;59286;59.274;17.974;2023-04-24T11:48:55;100300.78;;;6.74;89.15
71476;BME280;59286;59.274;17.974;2023-04-24T11:51:22;100299.09;;;6.60;89.04
71476;BME280;59286;59.274;17.974;2023-04-24T11:53:47;100300.88;;;6.64;89.57
71476;BME280;59286;59.274;17.974;2023-04-24T11:56:17;100303.09;;;6.76;89.49
71476;BME280;59286;59.274;17.974;2023-04-24T11:58:44;100300.22;;;6.77;89.68
71476;BME280;59286;59.274;17.974;2023-04-24T12:01:09;100304.59;;;6.82;88.59
71476;BME280;59286;59.274;17.974;2023-04-24T12:03:35;100298.91;;;6.80;88.57
71476;BME280;59286;59.274;17.974;2023-04-24T12:06:10;100295.84;;;6.73;88.13
71476;BME280;59286;59.274;17.974;2023-04-24T12:08:36;100303.66;;;6.73;87.99
71476;BME280;59286;59.274;17.974;2023-04-24T12:11:03;100295.59;;;6.69;87.33
71476;BME280;59286;59.274;17.974;2023-04-24T12:13:30;100293.78;;;6.70;87.03
71476;BME280;59286;59.274;17.974;2023-04-24T12:15:59;100289.19;;;6.62;87.22
71476;BME280;59286;59.274;17.974;2023-04-24T12:18:25;100293.88;;;6.60;87.19
71476;BME280;59286;59.274;17.974;2023-04-24T12:20:51;100290.16;;;6.66;88.18
71476;BME280;59286;59.274;17.974;2023-04-24T12:23:16;100285.16;;;6.74;87.73
71476;BME280;59286;59.274;17.974;2023-04-24T12:25:42;100281.91;;;6.82;87.07
71476;BME280;59286;59.274;17.974;2023-04-24T12:28:10;100292.91;;;6.79;86.93
71476;BME280;59286;59.274;17.974;2023-04-24T12:30:48;100282.69;;;6.83;87.46
71476;BME280;59286;59.274;17.974;2023-04-24T12:33:20;100300.47;;;7.05;86.65
71476;BME280;59286;59.274;17.974;2023-04-24T12:35:48;100282.25;;;7.00;86.09
71476;BME280;59286;59.274;17.974;2023-04-24T12:38:15;100282.47;;;7.03;85.53
71476;BME280;59286;59.274;17.974;2023-04-24T12:40:42;100276.22;;;7.04;85.46
71476;BME280;59286;59.274;17.974;2023-04-24T12:43:20;100277.59;;;7.20;85.24
71476;BME280;59286;59.274;17.974;2023-04-24T12:45:47;100269.59;;;6.93;84.63
71476;BME280;59286;59.274;17.974;2023-04-24T12:48:12;100263.44;;;6.84;85.48
71476;BME280;59286;59.274;17.974;2023-04-24T12:50:41;100260.88;;;6.79;85.96